Time;durP1;ratioP1;P1;durP2;ratioP2;P2;SDS_P1;SDS_P2;PMS_P1;PMS_P2;Temp;Humidity;BMP_temperature;BMP_pressure;BME280_temperature;BME280_humidity;BME280_pressure;Samples;Min_cycle;Max_cycle;Signal;HPM_P1;HPM_P2
2022/07/24 00:01:35;;;;;;;1999.90;999.90;;;;;;;17.14;100.00;99943.75;5061201;28;21142;-51
2022/07/24 00:04:19;;;;;;;1999.90;999.90;;;;;;;17.05;100.00;99937.09;5057119;28;20055;-51
2022/07/24 00:07:03;;;;;;;1999.90;999.90;;;;;;;16.82;100.00;99932.94;5057491;28;20083;-51
2022/07/24 00:09:48;;;;;;;1999.90;999.90;;;;;;;16.96;100.00;99934.91;5056866;28;20041;-53
2022/07/24 00:12:33;;;;;;;1999.90;999.90;;;;;;;16.82;100.00;99937.38;5055211;28;20058;-51
2022/07/24 00:15:18;;;;;;;1999.90;999.90;;;;;;;16.77;100.00;99934.97;5051633;28;20044;-51
2022/07/24 00:18:02;;;;;;;1999.90;999.90;;;;;;;16.71;100.00;99929.09;5052961;28;20103;-52
2022/07/24 00:20:46;;;;;;;1999.90;999.90;;;;;;;16.67;100.00;99938.09;5054022;28;20061;-51
2022/07/24 00:23:31;;;;;;;1999.90;999.90;;;;;;;16.65;100.00;99945.25;5056014;28;20075;-51
2022/07/24 00:26:15;;;;;;;1999.90;999.90;;;;;;;16.44;100.00;99941.81;5057720;28;20052;-51
2022/07/24 00:29:00;;;;;;;1999.90;999.90;;;;;;;16.45;100.00;99940.91;5056638;28;20044;-51
2022/07/24 00:31:44;;;;;;;1999.90;999.90;;;;;;;16.39;100.00;99939.41;5064117;28;20060;-51
2022/07/24 00:34:28;;;;;;;1999.90;999.90;;;;;;;16.30;100.00;99945.13;5057463;28;20499;-51
2022/07/24 00:37:13;;;;;;;1999.90;999.90;;;;;;;16.21;100.00;99950.84;5055933;28;20048;-52
2022/07/24 00:39:57;;;;;;;1999.90;999.90;;;;;;;16.22;100.00;99939.34;5060851;28;20510;-51
2022/07/24 00:42:43;;;;;;;1999.90;999.90;;;;;;;16.11;100.00;99938.03;5058765;28;20077;-51
2022/07/24 00:45:27;;;;;;;1999.90;999.90;;;;;;;15.96;100.00;99944.03;5054822;28;20044;-51
2022/07/24 00:48:12;;;;;;;1999.90;999.90;;;;;;;15.95;100.00;99931.72;5058921;28;20052;-51
2022/07/24 00:50:57;;;;;;;1999.90;999.90;;;;;;;15.99;100.00;99951.81;5049296;28;20041;-53
2022/07/24 00:53:41;;;;;;;1999.90;999.90;;;;;;;15.92;100.00;99953.00;5051463;28;20115;-51
2022/07/24 00:56:25;;;;;;;1999.90;999.90;;;;;;;15.86;100.00;99953.31;5053758;28;20086;-51
2022/07/24 00:59:11;;;;;;;1999.90;999.90;;;;;;;15.85;100.00;99947.13;5049954;28;20052;-51
2022/07/24 01:01:55;;;;;;;1999.90;999.90;;;;;;;15.84;100.00;99949.84;5053056;28;20049;-51
2022/07/24 01:04:40;;;;;;;1999.90;999.90;;;;;;;15.82;100.00;99949.91;5054785;28;20052;-51
2022/07/24 01:07:24;;;;;;;1999.90;999.90;;;;;;;15.71;100.00;99952.19;5058458;28;20053;-51
2022/07/24 01:10:10;;;;;;;1999.90;999.90;;;;;;;15.64;100.00;99948.91;5049602;28;20049;-52
2022/07/24 01:12:55;;;;;;;1999.90;999.90;;;;;;;15.53;100.00;99945.03;5058884;28;20045;-52
2022/07/24 01:15:39;;;;;;;1999.90;999.90;;;;;;;15.55;100.00;99948.47;5060151;28;20046;-52
2022/07/24 01:18:23;;;;;;;1999.90;999.90;;;;;;;15.46;100.00;99947.06;5058131;28;20264;-51
2022/07/24 01:21:08;;;;;;;1999.90;999.90;;;;;;;15.40;100.00;99942.94;5052212;28;20513;-51
2022/07/24 01:23:53;;;;;;;1999.90;999.90;;;;;;;15.38;100.00;99943.91;5053594;28;20060;-52
2022/07/24 01:26:37;;;;;;;1999.90;999.90;;;;;;;15.35;100.00;99938.75;5054429;28;20045;-52
2022/07/24 01:29:22;;;;;;;1999.90;999.90;;;;;;;15.40;100.00;99942.94;5061502;28;20490;-51
2022/07/24 01:32:06;;;;;;;1999.90;999.90;;;;;;;15.41;100.00;99943.78;5053488;28;20433;-51
2022/07/24 01:34:50;;;;;;;1999.90;999.90;;;;;;;15.35;100.00;99928.22;5049137;28;20396;-51
2022/07/24 01:37:35;;;;;;;1999.90;999.90;;;;;;;15.43;100.00;99934.84;5056420;28;20053;-51
2022/07/24 01:40:20;;;;;;;1999.90;999.90;;;;;;;15.31;100.00;99924.00;5061369;28;20044;-52
2022/07/24 01:43:05;;;;;;;1999.90;999.90;;;;;;;15.24;100.00;99919.88;5054170;28;20383;-52
2022/07/24 01:45:49;;;;;;;1999.90;999.90;;;;;;;15.24;100.00;99931.31;5055667;28;20053;-52
2022/07/24 01:48:34;;;;;;;1999.90;999.90;;;;;;;15.20;100.00;99937.63;5055922;28;20091;-51
2022/07/24 01:51:18;;;;;;;1999.90;999.90;;;;;;;15.05;100.00;99928.59;5051556;28;20060;-51
2022/07/24 01:54:03;;;;;;;1999.90;999.90;;;;;;;14.89;100.00;99930.13;5051733;28;20064;-51
2022/07/24 01:56:48;;;;;;;1999.90;999.90;;;;;;;14.94;100.00;99931.63;5058077;28;20095;-51
2022/07/24 01:59:32;;;;;;;1999.90;999.90;;;;;;;14.91;100.00;99928.28;5063162;28;20061;-51
2022/07/24 02:02:17;;;;;;;1999.90;999.90;;;;;;;15.07;100.00;99925.88;5053590;28;20056;-51
2022/07/24 02:05:02;;;;;;;1999.90;999.90;;;;;;;14.94;100.00;99926.38;5053206;28;20055;-52
2022/07/24 02:07:58;;;;;;;1999.90;999.90;;;;;;;15.00;100.00;99927.03;5062843;28;20072;-52
2022/07/24 02:10:42;;;;;;;1999.90;999.90;;;;;;;14.98;100.00;99924.47;5060837;28;20047;-51
2022/07/24 02:13:27;;;;;;;1999.90;999.90;;;;;;;14.99;100.00;99920.91;5055385;28;20510;-51
2022/07/24 02:16:11;;;;;;;1999.90;999.90;;;;;;;14.97;100.00;99928.03;5059335;28;20118;-51
2022/07/24 02:18:56;;;;;;;1999.90;999.90;;;;;;;14.90;100.00;99916.03;5055150;28;20087;-51
2022/07/24 02:21:40;;;;;;;1999.90;999.90;;;;;;;14.97;100.00;99928.03;5061410;28;20088;-52
2022/07/24 02:24:25;;;;;;;1999.90;999.90;;;;;;;14.90;100.00;99924.78;5057923;28;20055;-52
2022/07/24 02:27:10;;;;;;;1999.90;999.90;;;;;;;14.92;100.00;99920.31;5057102;28;20059;-51
2022/07/24 02:29:54;;;;;;;1999.90;999.90;;;;;;;14.90;100.00;99926.56;5068815;28;20114;-52
2022/07/24 02:32:39;;;;;;;1999.90;999.90;;;;;;;14.83;100.00;99919.84;5063856;28;20048;-51
2022/07/24 02:35:24;;;;;;;1999.90;999.90;;;;;;;14.74;100.00;99921.06;5066350;28;20053;-51
2022/07/24 02:38:09;;;;;;;1999.90;999.90;;;;;;;14.71;100.00;99918.53;5063509;28;20048;-52
2022/07/24 02:40:53;;;;;;;1999.90;999.90;;;;;;;14.61;100.00;99919.84;5058721;28;20068;-51
2022/07/24 02:43:37;;;;;;;1999.90;999.90;;;;;;;14.58;100.00;99920.81;5054536;28;20633;-51
2022/07/24 02:46:21;;;;;;;1999.90;999.90;;;;;;;14.55;100.00;99922.72;5055831;28;20360;-51
2022/07/24 02:49:07;;;;;;;1999.90;999.90;;;;;;;14.46;100.00;99916.88;5054042;28;20051;-51
2022/07/24 02:51:51;;;;;;;1999.90;999.90;;;;;;;14.43;100.00;99922.25;5060074;28;20080;-52
2022/07/24 02:54:36;;;;;;;1999.90;999.90;;;;;;;14.48;100.00;99922.91;5053219;28;20053;-50
2022/07/24 02:57:20;;;;;;;1999.90;999.90;;;;;;;14.47;100.00;99923.84;5053551;28;20103;-51
2022/07/24 03:00:08;;;;;;;1999.90;999.90;;;;;;;14.33;100.00;99920.00;5053736;28;20090;-51
2022/07/24 03:02:52;;;;;;;1999.90;999.90;;;;;;;14.39;100.00;99925.03;5053051;28;20048;-51
2022/07/24 03:05:36;;;;;;;1999.90;999.90;;;;;;;14.39;100.00;99933.81;5059314;28;20059;-50
2022/07/24 03:08:21;;;;;;;1999.90;999.90;;;;;;;14.43;100.00;99940.69;5052650;28;20132;-51
2022/07/24 03:11:06;;;;;;;1999.90;999.90;;;;;;;14.26;100.00;99940.47;5060236;28;20094;-51
2022/07/24 03:13:50;;;;;;;1999.90;999.90;;;;;;;14.31;100.00;99941.16;5053125;28;20878;-51
2022/07/24 03:16:34;;;;;;;1999.90;999.90;;;;;;;14.37;100.00;99948.84;5052082;28;20052;-51
2022/07/24 03:19:18;;;;;;;1999.90;999.90;;;;;;;14.25;100.00;99947.50;5055350;28;20909;-51
2022/07/24 03:22:03;;;;;;;1999.90;999.90;;;;;;;14.20;100.00;99941.59;5051846;28;20076;-51
2022/07/24 03:24:47;;;;;;;1999.90;999.90;;;;;;;14.18;100.00;99953.09;5056464;28;20052;-50
2022/07/24 03:27:32;;;;;;;1999.90;999.90;;;;;;;14.20;100.00;99953.88;5054016;28;20083;-51
2022/07/24 03:30:17;;;;;;;1999.90;999.90;;;;;;;14.24;100.00;99963.41;5058977;28;20099;-51
2022/07/24 03:33:02;;;;;;;1999.90;999.90;;;;;;;14.14;100.00;99956.75;5065954;28;20055;-51
2022/07/24 03:35:46;;;;;;;1999.90;999.90;;;;;;;14.30;100.00;99964.91;5059592;28;20032;-50
2022/07/24 03:38:30;;;;;;;1999.90;999.90;;;;;;;14.29;100.00;99965.84;5060738;28;20509;-50
2022/07/24 03:41:14;;;;;;;1999.90;999.90;;;;;;;14.19;100.00;99973.22;5057177;28;20051;-51
2022/07/24 03:43:59;;;;;;;1999.90;999.90;;;;;;;14.21;100.00;99974.03;5070326;28;20059;-51
2022/07/24 03:46:43;;;;;;;1999.90;999.90;;;;;;;14.25;100.00;99973.84;5058852;28;20048;-51
2022/07/24 03:49:28;;;;;;;1999.90;999.90;;;;;;;14.35;100.00;99971.72;5064032;28;20050;-51
2022/07/24 03:52:12;;;;;;;1999.90;999.90;;;;;;;14.48;100.00;99980.88;5063722;28;20048;-51
2022/07/24 03:54:57;;;;;;;1999.90;999.90;;;;;;;14.56;100.00;99982.41;5069452;28;20056;-51
2022/07/24 03:57:41;;;;;;;1999.90;999.90;;;;;;;14.76;100.00;99986.91;5065531;28;20040;-51
2022/07/24 04:00:26;;;;;;;1999.90;999.90;;;;;;;14.84;100.00;99988.31;5065524;28;20083;-51
2022/07/24 04:03:10;;;;;;;1999.90;999.90;;;;;;;14.91;100.00;99983.66;5064502;28;20422;-51
2022/07/24 04:05:54;;;;;;;1999.90;999.90;;;;;;;15.01;100.00;99977.09;5065549;28;20068;-51
2022/07/24 04:08:38;;;;;;;1999.90;999.90;;;;;;;15.22;100.00;99975.34;5070353;28;20044;-52
2022/07/24 04:11:23;;;;;;;1999.90;999.90;;;;;;;15.29;100.00;99975.97;5067966;28;20063;-52
2022/07/24 04:14:07;;;;;;;1999.90;999.90;;;;;;;15.25;100.00;99980.50;5070837;28;20426;-51
2022/07/24 04:16:52;;;;;;;1999.90;999.90;;;;;;;15.47;100.00;99980.47;5067022;28;20508;-51
2022/07/24 04:19:36;;;;;;;1999.90;999.90;;;;;;;15.83;100.00;99979.84;5066100;28;20110;-51
2022/07/24 04:22:21;;;;;;;1999.90;999.90;;;;;;;15.97;100.00;99979.22;5060648;28;20045;-51
2022/07/24 04:25:07;;;;;;;1999.90;999.90;;;;;;;16.28;100.00;99982.22;5054074;28;20060;-50
2022/07/24 04:27:51;;;;;;;1999.90;999.90;;;;;;;16.58;100.00;99979.91;5061250;28;20051;-52
2022/07/24 04:30:35;;;;;;;1999.90;999.90;;;;;;;16.55;100.00;99985.34;5069475;28;20082;-51
2022/07/24 04:33:20;;;;;;;1999.90;999.90;;;;;;;16.91;100.00;99986.34;5056234;28;20102;-52
2022/07/24 04:36:05;;;;;;;1999.90;999.90;;;;;;;17.01;100.00;99987.63;5061286;28;20190;-51
2022/07/24 04:38:50;;;;;;;1999.90;999.90;;;;;;;17.32;100.00;99992.25;5063497;28;20040;-52
2022/07/24 04:41:34;;;;;;;1999.90;999.90;;;;;;;17.28;100.00;99982.75;5065964;28;20498;-52
2022/07/24 04:44:19;;;;;;;1999.90;999.90;;;;;;;17.72;100.00;99984.94;5069911;28;20101;-52
2022/07/24 04:47:03;;;;;;;1999.90;999.90;;;;;;;18.14;100.00;99984.50;5062039;28;20051;-52
2022/07/24 04:49:48;;;;;;;1999.90;999.90;;;;;;;18.00;100.00;99989.66;5060752;28;20155;-51
2022/07/24 04:52:32;;;;;;;1999.90;999.90;;;;;;;18.19;100.00;99979.78;5056340;28;20056;-52
2022/07/24 04:55:17;;;;;;;1999.90;999.90;;;;;;;18.17;100.00;99996.75;5064582;28;20514;-52
2022/07/24 04:58:01;;;;;;;1999.90;999.90;;;;;;;18.64;100.00;100002.09;5054960;28;20043;-52
2022/07/24 05:00:46;;;;;;;1999.90;999.90;;;;;;;19.07;100.00;100005.03;5053401;28;20099;-52
2022/07/24 05:03:30;;;;;;;1999.90;999.90;;;;;;;19.07;100.00;100002.38;5049840;28;20052;-52
2022/07/24 05:06:15;;;;;;;1999.90;999.90;;;;;;;19.19;100.00;100013.25;5057962;28;20106;-52
2022/07/24 05:08:59;;;;;;;1999.90;999.90;;;;;;;18.95;100.00;100011.06;5054404;28;20045;-52
2022/07/24 05:11:44;;;;;;;1999.90;999.90;;;;;;;19.54;100.00;100011.19;5055159;28;20842;-52
2022/07/24 05:14:28;;;;;;;1999.90;999.90;;;;;;;19.60;100.00;100005.53;5056988;28;20048;-53
2022/07/24 05:17:12;;;;;;;1999.90;999.90;;;;;;;19.97;100.00;100012.16;5058638;28;20065;-53
2022/07/24 05:19:56;;;;;;;1999.90;999.90;;;;;;;19.80;100.00;100009.69;5055807;28;20388;-53
2022/07/24 05:22:42;;;;;;;1999.90;999.90;;;;;;;20.01;100.00;100026.13;5052987;28;20136;-52
2022/07/24 05:25:26;;;;;;;1999.90;999.90;;;;;;;20.08;100.00;100025.69;5054050;28;20083;-52
2022/07/24 05:28:11;;;;;;;1999.90;999.90;;;;;;;19.98;100.00;100016.53;5052255;28;20047;-52
2022/07/24 05:30:55;;;;;;;1999.90;999.90;;;;;;;20.28;100.00;100035.09;5051259;28;20052;-52
2022/07/24 05:33:40;;;;;;;1999.90;999.90;;;;;;;20.49;100.00;100032.88;5052200;28;20052;-52
2022/07/24 05:36:25;;;;;;;1999.90;999.90;;;;;;;20.54;100.00;100033.50;5053439;28;20060;-52
2022/07/24 05:39:10;;;;;;;1999.90;999.90;;;;;;;20.73;100.00;100032.31;5049859;28;21682;-53
2022/07/24 05:41:54;;;;;;;1999.90;999.90;;;;;;;20.72;100.00;100046.56;5045839;28;20051;-53
2022/07/24 05:44:39;;;;;;;1999.90;999.90;;;;;;;21.29;100.00;100041.13;5048704;28;20451;-53
2022/07/24 05:47:23;;;;;;;1999.90;999.90;;;;;;;21.30;100.00;100041.97;5047039;28;20148;-53
2022/07/24 05:50:10;;;;;;;1999.90;999.90;;;;;;;21.13;100.00;100043.09;5049317;28;20257;-53
2022/07/24 05:52:54;;;;;;;1999.90;999.90;;;;;;;21.67;100.00;100043.91;5047872;28;20053;-52
2022/07/24 05:55:39;;;;;;;1999.90;999.90;;;;;;;21.71;100.00;100047.25;5048141;28;20045;-54
2022/07/24 05:58:23;;;;;;;1999.90;999.90;;;;;;;22.13;100.00;100048.78;5047643;28;20060;-52
2022/07/24 06:01:08;;;;;;;1999.90;999.90;;;;;;;21.92;100.00;100045.75;5046577;28;20507;-53
2022/07/24 06:03:52;;;;;;;1999.90;999.90;;;;;;;22.04;100.00;100037.91;5047664;28;20051;-53
2022/07/24 06:06:37;;;;;;;1999.90;999.90;;;;;;;22.38;100.00;100041.75;5048392;28;20048;-53
2022/07/24 06:09:21;;;;;;;1999.90;999.90;;;;;;;21.65;100.00;100042.31;5049430;28;20044;-52
2022/07/24 06:12:06;;;;;;;1999.90;999.90;;;;;;;22.00;100.00;100052.38;5049464;28;20129;-53
2022/07/24 06:14:50;;;;;;;1999.90;999.90;;;;;;;22.37;100.00;100048.91;5050580;28;20064;-53
2022/07/24 06:17:34;;;;;;;1999.90;999.90;;;;;;;22.17;100.00;100054.78;5050114;28;20483;-53
2022/07/24 06:20:19;;;;;;;1999.90;999.90;;;;;;;22.19;100.00;100047.50;5051362;28;20472;-53
2022/07/24 06:23:03;;;;;;;1999.90;999.90;;;;;;;22.51;100.00;100053.25;5051859;28;20082;-52
2022/07/24 06:25:48;;;;;;;1999.90;999.90;;;;;;;22.27;100.00;100053.19;5048133;28;20045;-52
2022/07/24 06:28:32;;;;;;;1999.90;999.90;;;;;;;22.29;100.00;100047.72;5046230;28;20045;-52
2022/07/24 06:31:16;;;;;;;1999.90;999.90;;;;;;;22.08;100.00;100045.56;5050569;28;20051;-53
2022/07/24 06:34:01;;;;;;;1999.90;999.90;;;;;;;22.67;100.00;100047.69;5050891;28;20576;-53
2022/07/24 06:36:46;;;;;;;1999.90;999.90;;;;;;;23.06;100.00;100056.50;5049627;28;20045;-53
2022/07/24 06:39:30;;;;;;;1999.90;999.90;;;;;;;22.58;96.25;100048.34;5048980;28;20079;-53
2022/07/24 06:42:14;;;;;;;1999.90;999.90;;;;;;;22.95;95.77;100057.28;5046046;28;20055;-53
2022/07/24 06:44:59;;;;;;;1999.90;999.90;;;;;;;22.60;97.64;100051.78;5053003;28;20408;-53
2022/07/24 06:47:44;;;;;;;1999.90;999.90;;;;;;;22.81;96.20;100050.25;5049607;28;20499;-53
2022/07/24 06:50:29;;;;;;;1999.90;999.90;;;;;;;23.27;93.27;100054.06;5050396;28;20056;-53
2022/07/24 06:53:13;;;;;;;1999.90;999.90;;;;;;;23.81;89.62;100050.06;5050338;28;20557;-53
2022/07/24 06:55:58;;;;;;;1999.90;999.90;;;;;;;23.31;87.69;100052.88;5051280;28;20056;-52
2022/07/24 06:58:42;;;;;;;1999.90;999.90;;;;;;;23.90;85.00;100049.38;5050594;28;20059;-53
2022/07/24 07:01:26;;;;;;;1999.90;999.90;;;;;;;24.29;87.28;100044.56;5058246;28;20059;-54
2022/07/24 07:04:10;;;;;;;1999.90;999.90;;;;;;;24.67;87.17;100039.72;5053896;28;20049;-53
2022/07/24 07:06:55;;;;;;;1999.90;999.90;;;;;;;24.94;82.28;100043.84;5062657;28;20075;-53
2022/07/24 07:09:40;;;;;;;1999.90;999.90;;;;;;;25.01;83.52;100045.03;5057971;28;20049;-53
2022/07/24 07:12:24;;;;;;;1999.90;999.90;;;;;;;24.80;82.28;100036.06;5061412;28;20470;-52
2022/07/24 07:15:10;;;;;;;1999.90;999.90;;;;;;;24.15;78.99;100043.81;5062620;28;20838;-53
2022/07/24 07:17:54;;;;;;;1999.90;999.90;;;;;;;24.91;80.50;100044.09;5066662;28;20079;-52
2022/07/24 07:20:38;;;;;;;1999.90;999.90;;;;;;;24.75;78.23;100040.94;5062420;28;20051;-53
2022/07/24 07:23:26;;;;;;;1999.90;999.90;;;;;;;24.52;76.38;100040.94;5057909;28;20052;-53
2022/07/24 07:26:10;;;;;;;1999.90;999.90;;;;;;;25.07;77.02;100041.84;5055079;28;20045;-52
2022/07/24 07:28:55;;;;;;;1999.90;999.90;;;;;;;25.71;77.40;100042.88;5050730;28;20133;-52
2022/07/24 07:31:39;;;;;;;1999.90;999.90;;;;;;;25.32;76.20;100045.25;5066149;28;20058;-54
2022/07/24 07:34:24;;;;;;;1999.90;999.90;;;;;;;25.04;72.32;100057.34;5054786;28;20159;-53
2022/07/24 07:37:08;;;;;;;1999.90;999.90;;;;;;;24.95;72.77;100057.09;5053642;28;20105;-53
2022/07/24 07:39:53;;;;;;;1999.90;999.90;;;;;;;24.51;74.31;100058.00;5055146;28;20080;-53
2022/07/24 07:42:37;;;;;;;1999.90;999.90;;;;;;;24.65;74.40;100067.59;5052311;28;20537;-53
2022/07/24 07:45:22;;;;;;;1999.90;999.90;;;;;;;25.97;74.28;100065.69;5049116;28;20130;-53
2022/07/24 07:48:07;;;;;;;1999.90;999.90;;;;;;;25.79;71.94;100065.38;5051525;28;20208;-53
2022/07/24 07:50:51;;;;;;;1999.90;999.90;;;;;;;25.21;72.51;100069.38;5061721;28;20483;-54
2022/07/24 07:53:36;;;;;;;1999.90;999.90;;;;;;;25.59;76.68;100067.06;5060221;28;20040;-53
2022/07/24 07:56:20;;;;;;;1999.90;999.90;;;;;;;26.15;73.51;100076.66;5055827;28;20084;-53
2022/07/24 07:59:05;;;;;;;1999.90;999.90;;;;;;;25.48;72.11;100064.44;5057888;28;20048;-52
2022/07/24 08:01:49;;;;;;;1999.90;999.90;;;;;;;25.95;72.49;100070.31;5060375;28;20048;-53
2022/07/24 08:04:35;;;;;;;1999.90;999.90;;;;;;;25.53;66.89;100069.41;5061481;28;20090;-53
2022/07/24 08:07:19;;;;;;;1999.90;999.90;;;;;;;25.67;67.54;100065.56;5063390;28;20059;-52
2022/07/24 08:10:05;;;;;;;1999.90;999.90;;;;;;;25.64;67.35;100072.91;5059808;28;20056;-52
2022/07/24 08:12:50;;;;;;;1999.90;999.90;;;;;;;25.19;66.14;100080.22;5055300;28;20052;-52
2022/07/24 08:15:34;;;;;;;1999.90;999.90;;;;;;;25.87;64.22;100079.03;5064730;28;20031;-53
2022/07/24 08:18:19;;;;;;;1999.90;999.90;;;;;;;26.44;64.66;100068.78;5056358;28;20073;-53
2022/07/24 08:21:04;;;;;;;1999.90;999.90;;;;;;;26.83;65.96;100063.59;5058465;28;20093;-52
2022/07/24 08:23:48;;;;;;;1999.90;999.90;;;;;;;26.94;65.12;100068.88;5064715;28;20047;-52
2022/07/24 08:26:33;;;;;;;1999.90;999.90;;;;;;;27.02;65.41;100069.03;5055040;28;20056;-52
2022/07/24 08:29:18;;;;;;;1999.90;999.90;;;;;;;26.03;62.85;100081.28;5055759;28;20056;-53
2022/07/24 08:32:03;;;;;;;1999.90;999.90;;;;;;;25.21;62.21;100066.69;5054564;28;20084;-52
2022/07/24 08:34:47;;;;;;;1999.90;999.90;;;;;;;26.19;62.60;100086.16;5051466;28;20095;-52
2022/07/24 08:37:39;;;;;;;1999.90;999.90;;;;;;;26.37;61.71;100083.72;5065691;28;20062;-52
2022/07/24 08:40:24;;;;;;;1999.90;999.90;;;;;;;27.24;59.89;100084.09;5057455;28;20045;-52
2022/07/24 08:43:09;;;;;;;1999.90;999.90;;;;;;;26.51;60.35;100082.53;5059453;28;20057;-52
2022/07/24 08:45:55;;;;;;;1999.90;999.90;;;;;;;26.91;59.98;100077.22;5063312;28;20048;-52
2022/07/24 08:48:43;;;;;;;1999.90;999.90;;;;;;;26.40;58.34;100082.63;5060762;28;20109;-53
2022/07/24 08:51:33;;;;;;;1999.90;999.90;;;;;;;26.52;64.31;100082.44;5059542;28;20103;-53
2022/07/24 08:54:17;;;;;;;1999.90;999.90;;;;;;;27.02;58.90;100081.63;5061357;28;20091;-53
2022/07/24 08:57:03;;;;;;;1999.90;999.90;;;;;;;27.14;58.00;100077.03;5063050;28;20935;-53
2022/07/24 08:59:47;;;;;;;1999.90;999.90;;;;;;;26.62;59.04;100078.91;5060994;28;20058;-52
2022/07/24 09:02:33;;;;;;;1999.90;999.90;;;;;;;27.41;58.46;100079.88;5064094;28;20511;-53
2022/07/24 09:05:18;;;;;;;1999.90;999.90;;;;;;;27.94;58.93;100084.00;5062585;28;20090;-53
2022/07/24 09:08:10;;;;;;;1999.90;999.90;;;;;;;26.93;57.21;100083.28;5065871;28;20079;-53
2022/07/24 09:10:58;;;;;;;1999.90;999.90;;;;;;;28.21;56.16;100091.34;5060769;28;20561;-53
2022/07/24 09:16:47;;;;;;;1999.90;999.90;;;;;;;27.68;56.52;100091.78;5061272;28;20506;-54
2022/07/24 09:19:52;;;;;;;1999.90;999.90;;;;;;;27.27;53.02;100078.44;5062812;28;20692;-53
2022/07/24 09:22:39;;;;;;;1999.90;999.90;;;;;;;27.42;54.94;100086.09;5056476;28;20133;-53
2022/07/24 09:25:26;;;;;;;1999.90;999.90;;;;;;;27.95;54.71;100091.09;5055945;28;20071;-52
2022/07/24 09:28:11;;;;;;;1999.90;999.90;;;;;;;27.98;56.25;100080.03;5060755;28;20051;-53
2022/07/24 09:31:02;;;;;;;1999.90;999.90;;;;;;;28.15;52.51;100081.16;5058029;28;20067;-54
2022/07/24 09:33:46;;;;;;;1999.90;999.90;;;;;;;27.76;57.17;100091.94;5057562;28;20071;-53
2022/07/24 09:36:31;;;;;;;1999.90;999.90;;;;;;;28.37;52.91;100086.22;5056774;28;20667;-53
2022/07/24 09:39:19;;;;;;;1999.90;999.90;;;;;;;27.24;52.98;100092.16;5050528;28;20515;-53
2022/07/24 09:42:06;;;;;;;1999.90;999.90;;;;;;;26.95;55.54;100085.84;5048105;28;20130;-53
2022/07/24 09:44:58;;;;;;;1999.90;999.90;;;;;;;27.76;54.20;100101.84;5047369;28;20060;-53
2022/07/24 09:47:43;;;;;;;1999.90;999.90;;;;;;;27.37;54.38;100099.97;5049611;28;20085;-54
2022/07/24 09:50:30;;;;;;;1999.90;999.90;;;;;;;27.47;54.27;100106.22;5049769;28;20055;-54
2022/07/24 09:53:17;;;;;;;1999.90;999.90;;;;;;;27.19;58.14;100096.25;5050288;28;20048;-53
2022/07/24 09:56:10;;;;;;;1999.90;999.90;;;;;;;26.92;61.05;100096.88;5050410;28;20057;-53
2022/07/24 09:58:57;;;;;;;1999.90;999.90;;;;;;;26.26;54.55;100103.44;5047597;28;20037;-55
2022/07/24 10:01:44;;;;;;;1999.90;999.90;;;;;;;27.59;56.94;100103.38;5052700;28;20130;-53
2022/07/24 10:04:34;;;;;;;1999.90;999.90;;;;;;;27.84;52.67;100105.53;5055904;28;20510;-52
2022/07/24 10:07:21;;;;;;;1999.90;999.90;;;;;;;27.90;52.19;100096.06;5049381;28;20051;-53
2022/07/24 10:10:06;;;;;;;1999.90;999.90;;;;;;;27.94;51.93;100092.94;5051658;28;20095;-53
2022/07/24 10:12:50;;;;;;;1999.90;999.90;;;;;;;27.98;54.08;100096.19;5052906;28;20055;-53
2022/07/24 10:15:42;;;;;;;1999.90;999.90;;;;;;;27.98;54.26;100089.94;5053563;28;20114;-54
2022/07/24 10:18:46;;;;;;;1999.90;999.90;;;;;;;28.20;52.33;100095.88;5057178;28;20581;-53
2022/07/24 10:21:34;;;;;;;1999.90;999.90;;;;;;;28.28;53.41;100094.31;5056919;28;20056;-53
2022/07/24 10:24:43;;;;;;;1999.90;999.90;;;;;;;27.76;52.03;100093.78;5049983;28;20698;-52
2022/07/24 10:27:32;;;;;;;1999.90;999.90;;;;;;;28.36;52.13;100097.94;5049103;28;20468;-53
2022/07/24 10:30:18;;;;;;;1999.90;999.90;;;;;;;28.77;53.64;100087.78;5059958;28;20041;-53
2022/07/24 10:33:03;;;;;;;1999.90;999.90;;;;;;;28.30;50.27;100078.84;5062370;28;20086;-53
2022/07/24 10:35:49;;;;;;;1999.90;999.90;;;;;;;28.36;54.12;100092.56;5060268;28;20059;-53
2022/07/24 10:38:37;;;;;;;1999.90;999.90;;;;;;;28.45;50.75;100087.34;5056757;28;20056;-52
2022/07/24 10:41:25;;;;;;;1999.90;999.90;;;;;;;28.94;50.97;100093.38;5063406;28;20064;-53
2022/07/24 10:44:18;;;;;;;1999.90;999.90;;;;;;;28.60;55.34;100096.63;5059641;28;20083;-53
2022/07/24 10:47:13;;;;;;;1999.90;999.90;;;;;;;28.67;52.85;100095.06;5059979;28;20087;-52
2022/07/24 10:49:58;;;;;;;1999.90;999.90;;;;;;;28.77;53.33;100095.88;5052847;28;20479;-53
2022/07/24 10:52:42;;;;;;;1999.90;999.90;;;;;;;29.35;51.50;100086.63;5056220;28;20083;-53
2022/07/24 10:55:34;;;;;;;1999.90;999.90;;;;;;;28.25;55.71;100087.38;5055764;28;20062;-53
2022/07/24 10:58:21;;;;;;;1999.90;999.90;;;;;;;28.75;52.26;100086.22;5059885;28;20057;-52
2022/07/24 11:01:34;;;;;;;1999.90;999.90;;;;;;;28.57;53.31;100081.63;5062841;28;20074;-57
2022/07/24 11:04:18;;;;;;;1999.90;999.90;;;;;;;28.53;51.46;100087.44;5054770;28;20044;-53
2022/07/24 11:07:12;;;;;;;1999.90;999.90;;;;;;;28.93;52.66;100084.44;5052773;28;20049;-54
2022/07/24 11:10:07;;;;;;;1999.90;999.90;;;;;;;28.13;52.25;100091.22;5061176;28;20116;-53
2022/07/24 11:12:52;;;;;;;1999.90;999.90;;;;;;;28.13;52.62;100085.81;5068027;28;20041;-53
2022/07/24 11:16:23;;;;;;;1999.90;999.90;;;;;;;28.98;54.34;100083.97;5052288;28;20064;-54
2022/07/24 11:19:07;;;;;;;1999.90;999.90;;;;;;;29.21;57.19;100074.50;5052425;28;20052;-53
2022/07/24 11:22:02;;;;;;;1999.90;999.90;;;;;;;28.36;54.28;100084.50;5058673;28;20175;-53
2022/07/24 11:25:09;;;;;;;1999.90;999.90;;;;;;;28.01;53.98;100076.22;5054902;28;20523;-54
2022/07/24 11:28:05;;;;;;;1999.90;999.90;;;;;;;29.23;53.57;100080.59;5059332;28;20604;-53
2022/07/24 11:30:50;;;;;;;1999.90;999.90;;;;;;;28.70;50.27;100072.34;5050514;28;20076;-54
2022/07/24 11:33:34;;;;;;;1999.90;999.90;;;;;;;29.19;49.55;100067.59;5055580;28;20055;-53
2022/07/24 11:36:19;;;;;;;1999.90;999.90;;;;;;;29.17;53.48;100064.19;5061904;28;20049;-53
2022/07/24 11:39:03;;;;;;;1999.90;999.90;;;;;;;27.87;54.28;100054.13;5052869;28;20484;-53
2022/07/24 11:41:52;;;;;;;1999.90;999.90;;;;;;;28.10;52.20;100068.13;5060389;28;20400;-53
2022/07/24 11:44:49;;;;;;;1999.90;999.90;;;;;;;28.75;54.02;100051.19;5054590;28;20055;-54
2022/07/24 11:47:34;;;;;;;1999.90;999.90;;;;;;;28.91;51.88;100054.09;5055963;28;20110;-53
2022/07/24 11:50:22;;;;;;;1999.90;999.90;;;;;;;28.22;54.39;100059.88;5057059;28;20399;-53
2022/07/24 11:53:07;;;;;;;1999.90;999.90;;;;;;;28.21;53.91;100053.66;5061973;28;20103;-54
2022/07/24 11:56:02;;;;;;;1999.90;999.90;;;;;;;29.10;51.24;100059.41;5052624;28;20090;-53
2022/07/24 11:58:47;;;;;;;1999.90;999.90;;;;;;;28.91;52.87;100048.69;5063368;28;20110;-53
2022/07/24 12:01:31;;;;;;;1999.90;999.90;;;;;;;28.43;51.99;100039.00;5064230;28;20126;-54
2022/07/24 12:04:21;;;;;;;1999.90;999.90;;;;;;;28.66;53.14;100052.94;5062274;28;20547;-53
2022/07/24 12:07:07;;;;;;;1999.90;999.90;;;;;;;28.22;50.86;100041.03;5057971;28;20195;-53
2022/07/24 12:09:55;;;;;;;1999.90;999.90;;;;;;;28.61;52.85;100047.16;5061592;28;20041;-54